Time;durP1;ratioP1;P1;durP2;ratioP2;P2;SDS_P1;SDS_P2;PMS_P1;PMS_P2;Temp;Humidity;BMP_temperature;BMP_pressure;BME280_temperature;BME280_humidity;BME280_pressure;Samples;Min_cycle;Max_cycle;Signal;HPM_P1;HPM_P2
2021/08/14 00:00:11;;;;;;;;;;;13.10;99.50;;;;;;5093129;28;20139;-66
2021/08/14 00:02:37;;;;;;;;;;;13.10;99.60;;;;;;5093767;28;19908;-67
2021/08/14 00:05:04;;;;;;;;;;;13.10;99.70;;;;;;5094044;28;20359;-67
2021/08/14 00:07:31;;;;;;;;;;;13.20;99.60;;;;;;5093556;28;19908;-65
2021/08/14 00:09:57;;;;;;;;;;;13.30;99.30;;;;;;5093723;28;19935;-66
2021/08/14 00:12:24;;;;;;;;;;;13.40;99.20;;;;;;5093494;28;19908;-66
2021/08/14 00:14:51;;;;;;;;;;;13.50;98.70;;;;;;5093501;28;19916;-67
2021/08/14 00:17:17;;;;;;;;;;;13.50;98.90;;;;;;5093630;28;19919;-66
2021/08/14 00:19:44;;;;;;;;;;;13.50;99.00;;;;;;5093127;28;19968;-65
2021/08/14 00:22:11;;;;;;;;;;;13.60;98.90;;;;;;5093312;28;20022;-66
2021/08/14 00:24:37;;;;;;;;;;;13.60;98.80;;;;;;5093670;28;19908;-66
2021/08/14 00:27:04;;;;;;;;;;;13.70;98.60;;;;;;5093394;28;19953;-67
2021/08/14 00:29:31;;;;;;;;;;;13.70;98.40;;;;;;5093002;28;19908;-66
2021/08/14 00:31:57;;;;;;;;;;;13.70;98.20;;;;;;5093308;28;20053;-66
2021/08/14 00:34:24;;;;;;;;;;;13.90;98.10;;;;;;5075086;28;19916;-66
2021/08/14 00:36:51;;;;;;;;;;;13.90;98.30;;;;;;5093022;28;19909;-65
2021/08/14 00:39:17;;;;;;;;;;;13.90;98.20;;;;;;5093221;28;20006;-65
2021/08/14 00:41:44;;;;;;;;;;;14.00;97.70;;;;;;5092963;28;19991;-66
2021/08/14 00:44:11;;;;;;;;;;;14.10;97.70;;;;;;5092709;28;19915;-66
2021/08/14 00:46:38;;;;;;;;;;;14.10;97.90;;;;;;5092936;28;19920;-67
2021/08/14 00:49:04;;;;;;;;;;;14.20;97.90;;;;;;5093210;28;19912;-67
2021/08/14 00:51:31;;;;;;;;;;;14.30;98.20;;;;;;5092895;28;19908;-68
2021/08/14 00:53:58;;;;;;;;;;;14.30;98.00;;;;;;5092829;28;19952;-67
2021/08/14 00:56:25;;;;;;;;;;;14.40;97.80;;;;;;5092875;28;20267;-67
2021/08/14 00:58:53;;;;;;;;;;;14.50;98.10;;;;;;5092606;28;19912;-66
2021/08/14 01:01:23;;;;;;;;;;;14.50;98.40;;;;;;5092836;28;19908;-67
2021/08/14 01:03:50;;;;;;;;;;;14.50;98.40;;;;;;5092504;28;20418;-67
2021/08/14 01:06:18;;;;;;;;;;;14.50;98.60;;;;;;5092891;28;19912;-67
2021/08/14 01:08:48;;;;;;;;;;;14.50;98.60;;;;;;5092610;28;19961;-67
2021/08/14 01:11:15;;;;;;;;;;;14.60;98.80;;;;;;5092606;28;19908;-68
2021/08/14 01:13:42;;;;;;;;;;;14.90;98.20;;;;;;5092291;28;19939;-68
2021/08/14 01:16:09;;;;;;;;;;;15.50;97.20;;;;;;5092516;28;19991;-68
2021/08/14 01:18:40;;;;;;;;;;;16.30;95.90;;;;;;5092379;28;19908;-68
2021/08/14 01:21:07;;;;;;;;;;;16.40;96.00;;;;;;5092289;28;19908;-68
2021/08/14 01:23:33;;;;;;;;;;;16.50;95.60;;;;;;5092204;28;20003;-67
2021/08/14 01:26:04;;;;;;;;;;;16.40;96.10;;;;;;5092287;28;20256;-67
2021/08/14 01:28:31;;;;;;;;;;;16.40;96.20;;;;;;5092652;28;20029;-68
2021/08/14 01:30:59;;;;;;;;;;;16.30;96.30;;;;;;5092159;28;19908;-66
2021/08/14 01:33:25;;;;;;;;;;;16.20;96.70;;;;;;5092245;28;19954;-67
2021/08/14 01:35:52;;;;;;;;;;;16.10;96.80;;;;;;5092198;28;20007;-65
2021/08/14 01:38:19;;;;;;;;;;;16.00;96.80;;;;;;5092016;28;19934;-67
2021/08/14 01:40:45;;;;;;;;;;;16.00;96.90;;;;;;5092226;28;20322;-66
2021/08/14 01:43:12;;;;;;;;;;;15.90;97.00;;;;;;5092128;28;20355;-65
2021/08/14 01:45:40;;;;;;;;;;;15.80;97.00;;;;;;5091713;28;19908;-66
2021/08/14 01:48:08;;;;;;;;;;;15.80;97.20;;;;;;5092313;28;19959;-67
2021/08/14 01:50:35;;;;;;;;;;;15.80;97.30;;;;;;5092137;28;19908;-67
2021/08/14 01:53:01;;;;;;;;;;;15.80;97.30;;;;;;5092130;28;19912;-65
2021/08/14 01:55:28;;;;;;;;;;;15.80;97.50;;;;;;5091851;28;19970;-66
2021/08/14 01:57:55;;;;;;;;;;;15.90;97.40;;;;;;5095550;28;20350;-66
2021/08/14 02:00:21;;;;;;;;;;;15.80;97.30;;;;;;5096263;28;19957;-66
2021/08/14 02:02:48;;;;;;;;;;;15.80;97.90;;;;;;5100306;28;20006;-67
2021/08/14 02:05:15;;;;;;;;;;;16.00;97.40;;;;;;5097348;28;19908;-65
2021/08/14 02:07:41;;;;;;;;;;;16.10;97.30;;;;;;5095961;28;20385;-66
2021/08/14 02:10:09;;;;;;;;;;;16.10;97.70;;;;;;5095711;28;19908;-65
2021/08/14 02:12:35;;;;;;;;;;;16.20;97.70;;;;;;5095690;28;20278;-64
2021/08/14 02:15:03;;;;;;;;;;;16.30;97.60;;;;;;5095713;28;19927;-65
2021/08/14 02:17:30;;;;;;;;;;;16.30;97.50;;;;;;5095913;28;19908;-65
2021/08/14 02:19:57;;;;;;;;;;;16.30;96.90;;;;;;5095896;28;19908;-65
2021/08/14 02:22:24;;;;;;;;;;;16.20;97.40;;;;;;5095768;28;19915;-64
2021/08/14 02:24:50;;;;;;;;;;;16.30;98.00;;;;;;5095532;28;19908;-65
2021/08/14 02:27:17;;;;;;;;;;;16.40;97.70;;;;;;5095252;28;19912;-68
2021/08/14 02:29:43;;;;;;;;;;;16.40;97.60;;;;;;5095707;28;19908;-65
2021/08/14 02:32:10;;;;;;;;;;;16.40;98.00;;;;;;5095473;28;19909;-66
2021/08/14 02:34:37;;;;;;;;;;;16.20;98.00;;;;;;5095429;28;20381;-66
2021/08/14 02:37:04;;;;;;;;;;;16.30;98.40;;;;;;5095893;28;19908;-66
2021/08/14 02:39:30;;;;;;;;;;;16.30;97.70;;;;;;5095379;28;19915;-64
2021/08/14 02:41:57;;;;;;;;;;;16.30;98.10;;;;;;5095226;28;20220;-65
2021/08/14 02:44:23;;;;;;;;;;;16.40;97.90;;;;;;5095412;28;20351;-66
2021/08/14 02:46:50;;;;;;;;;;;16.40;98.30;;;;;;5095305;28;19927;-66
2021/08/14 02:49:17;;;;;;;;;;;16.40;98.00;;;;;;5095251;28;19951;-67
2021/08/14 02:51:43;;;;;;;;;;;16.20;98.60;;;;;;5095064;28;19915;-65
2021/08/14 02:54:10;;;;;;;;;;;16.20;98.80;;;;;;5094967;28;19939;-64
2021/08/14 02:56:36;;;;;;;;;;;16.30;98.20;;;;;;5094931;28;20349;-65
2021/08/14 02:59:03;;;;;;;;;;;16.10;98.40;;;;;;5095141;28;19908;-64
2021/08/14 03:01:30;;;;;;;;;;;16.20;98.60;;;;;;5094705;28;19996;-66
2021/08/14 03:03:56;;;;;;;;;;;16.20;98.20;;;;;;5094865;28;19908;-65
2021/08/14 03:06:24;;;;;;;;;;;16.20;97.50;;;;;;5094929;28;19966;-65
2021/08/14 03:08:51;;;;;;;;;;;16.40;98.70;;;;;;5094750;28;19908;-66
2021/08/14 03:11:17;;;;;;;;;;;16.60;95.10;;;;;;5094601;28;19912;-66
2021/08/14 03:13:44;;;;;;;;;;;16.60;95.40;;;;;;5094503;28;19908;-66
2021/08/14 03:16:11;;;;;;;;;;;16.70;95.40;;;;;;5095011;28;19912;-65
2021/08/14 03:18:37;;;;;;;;;;;16.80;95.20;;;;;;5094914;28;19911;-65
2021/08/14 03:21:04;;;;;;;;;;;16.90;95.10;;;;;;5094533;28;19915;-67
2021/08/14 03:23:31;;;;;;;;;;;17.00;95.10;;;;;;5094237;28;19930;-66
2021/08/14 03:25:57;;;;;;;;;;;17.00;95.30;;;;;;5094090;28;19953;-67
2021/08/14 03:28:24;;;;;;;;;;;17.10;95.00;;;;;;5094663;28;19944;-66
2021/08/14 03:30:51;;;;;;;;;;;17.00;95.10;;;;;;5094312;28;19908;-66
2021/08/14 03:33:17;;;;;;;;;;;17.20;95.30;;;;;;5094413;28;20386;-66
2021/08/14 03:35:44;;;;;;;;;;;17.20;94.30;;;;;;5094252;28;19920;-66
2021/08/14 03:38:10;;;;;;;;;;;17.20;94.30;;;;;;5094384;28;19908;-66
2021/08/14 03:40:37;;;;;;;;;;;17.20;95.00;;;;;;5094382;28;19908;-66
2021/08/14 03:43:04;;;;;;;;;;;17.20;95.70;;;;;;5094419;28;19908;-65
2021/08/14 03:45:30;;;;;;;;;;;17.10;95.40;;;;;;5093965;28;19908;-65
2021/08/14 03:47:57;;;;;;;;;;;17.10;94.50;;;;;;5094106;28;19920;-66
2021/08/14 03:50:24;;;;;;;;;;;17.10;94.00;;;;;;5094079;28;19908;-65
2021/08/14 03:52:50;;;;;;;;;;;17.10;94.40;;;;;;5094012;28;20287;-65
2021/08/14 03:55:17;;;;;;;;;;;17.00;94.50;;;;;;5093813;28;19920;-66
2021/08/14 03:57:43;;;;;;;;;;;17.20;94.70;;;;;;5093706;28;19943;-65
2021/08/14 04:00:10;;;;;;;;;;;17.20;94.80;;;;;;5076529;28;19947;-67
2021/08/14 04:02:37;;;;;;;;;;;17.10;95.00;;;;;;5073663;28;19935;-65
2021/08/14 04:05:04;;;;;;;;;;;17.10;94.80;;;;;;5073107;28;19963;-65
2021/08/14 04:07:30;;;;;;;;;;;17.10;94.40;;;;;;5073203;28;20351;-67
2021/08/14 04:09:57;;;;;;;;;;;17.20;94.20;;;;;;5073377;28;19909;-67
2021/08/14 04:12:24;;;;;;;;;;;17.10;93.70;;;;;;5073378;28;19908;-68
2021/08/14 04:14:50;;;;;;;;;;;17.10;93.70;;;;;;5073407;28;20012;-67
2021/08/14 04:17:17;;;;;;;;;;;17.10;94.20;;;;;;5073614;28;19923;-66
2021/08/14 04:19:44;;;;;;;;;;;17.10;94.10;;;;;;5072619;28;20055;-67
2021/08/14 04:22:10;;;;;;;;;;;17.20;93.80;;;;;;5072854;28;19930;-66
2021/08/14 04:24:37;;;;;;;;;;;17.20;92.90;;;;;;5073078;28;19961;-65
2021/08/14 04:27:04;;;;;;;;;;;17.10;92.80;;;;;;5072952;28;19999;-65
2021/08/14 04:29:30;;;;;;;;;;;17.10;92.50;;;;;;5072840;28;19909;-65
2021/08/14 04:31:57;;;;;;;;;;;17.10;92.70;;;;;;5073092;28;19916;-65
2021/08/14 04:34:24;;;;;;;;;;;17.20;92.80;;;;;;5088654;28;19916;-65
2021/08/14 04:36:50;;;;;;;;;;;17.10;92.60;;;;;;5072359;28;19944;-67
2021/08/14 04:39:17;;;;;;;;;;;17.10;93.20;;;;;;5072716;28;19917;-66
2021/08/14 04:41:44;;;;;;;;;;;17.10;92.80;;;;;;5072728;28;20491;-68
2021/08/14 04:44:10;;;;;;;;;;;17.10;92.50;;;;;;5072923;28;19908;-68
2021/08/14 04:46:37;;;;;;;;;;;17.10;91.40;;;;;;5072808;28;19920;-68
2021/08/14 04:49:03;;;;;;;;;;;17.10;92.20;;;;;;5072583;28;19908;-67
2021/08/14 04:51:30;;;;;;;;;;;17.00;92.20;;;;;;5072090;28;20363;-66
2021/08/14 04:53:57;;;;;;;;;;;17.00;93.40;;;;;;5072632;28;20016;-66
2021/08/14 04:56:24;;;;;;;;;;;17.10;93.40;;;;;;5072312;28;19912;-67
2021/08/14 04:58:50;;;;;;;;;;;17.10;94.70;;;;;;5072556;28;19923;-65
2021/08/14 05:01:17;;;;;;;;;;;17.00;94.80;;;;;;5072398;28;19948;-66
2021/08/14 05:03:44;;;;;;;;;;;17.00;93.90;;;;;;5072268;28;19908;-66
2021/08/14 05:06:11;;;;;;;;;;;17.10;94.30;;;;;;5071934;28;20270;-66
2021/08/14 05:08:37;;;;;;;;;;;17.00;94.50;;;;;;5072432;28;19951;-66
2021/08/14 05:11:04;;;;;;;;;;;17.00;92.70;;;;;;5071976;28;19919;-66
2021/08/14 05:13:31;;;;;;;;;;;17.00;92.80;;;;;;5072492;28;19908;-66
2021/08/14 05:15:58;;;;;;;;;;;17.00;93.50;;;;;;5072663;28;19916;-65
2021/08/14 05:18:24;;;;;;;;;;;17.00;93.90;;;;;;5072577;28;19962;-65
2021/08/14 05:20:51;;;;;;;;;;;17.00;94.20;;;;;;5072544;28;19999;-66
2021/08/14 05:23:17;;;;;;;;;;;16.90;93.90;;;;;;5072373;28;20003;-65
2021/08/14 05:25:44;;;;;;;;;;;16.80;93.30;;;;;;5072149;28;19908;-66
2021/08/14 05:28:11;;;;;;;;;;;16.80;92.90;;;;;;5072392;28;19909;-67
2021/08/14 05:30:37;;;;;;;;;;;16.80;93.90;;;;;;5071949;28;19909;-66
2021/08/14 05:33:04;;;;;;;;;;;16.70;93.40;;;;;;5072163;28;20003;-66
2021/08/14 05:35:31;;;;;;;;;;;16.70;94.10;;;;;;5072226;28;19970;-67
2021/08/14 05:37:57;;;;;;;;;;;16.70;93.90;;;;;;5072179;28;20367;-66
2021/08/14 05:40:24;;;;;;;;;;;16.70;94.40;;;;;;5072129;28;19962;-66
2021/08/14 05:42:51;;;;;;;;;;;16.70;95.20;;;;;;5072281;28;20291;-66
2021/08/14 05:45:18;;;;;;;;;;;16.70;94.80;;;;;;5072278;28;19934;-66
2021/08/14 05:47:45;;;;;;;;;;;16.70;94.80;;;;;;5071749;28;19967;-67
2021/08/14 05:50:11;;;;;;;;;;;16.70;94.60;;;;;;5072020;28;19940;-65
2021/08/14 05:52:38;;;;;;;;;;;16.70;94.90;;;;;;5072201;28;19996;-65
2021/08/14 05:55:05;;;;;;;;;;;16.60;95.10;;;;;;5072032;28;19920;-65
2021/08/14 05:57:31;;;;;;;;;;;16.50;94.60;;;;;;5071641;28;19958;-66
2021/08/14 05:59:58;;;;;;;;;;;16.60;94.80;;;;;;5072174;28;19908;-66
2021/08/14 06:02:25;;;;;;;;;;;16.60;95.00;;;;;;5072171;28;19909;-66
2021/08/14 06:04:51;;;;;;;;;;;16.60;94.90;;;;;;5072059;28;19978;-65
2021/08/14 06:07:18;;;;;;;;;;;16.50;94.80;;;;;;5072310;28;19916;-65
2021/08/14 06:09:44;;;;;;;;;;;16.60;94.50;;;;;;5072033;28;19916;-65
2021/08/14 06:12:11;;;;;;;;;;;16.50;94.20;;;;;;5087872;28;20359;-65
2021/08/14 06:14:38;;;;;;;;;;;16.50;94.60;;;;;;5072412;28;19917;-65
2021/08/14 06:17:05;;;;;;;;;;;16.50;95.00;;;;;;5073612;28;20391;-65
2021/08/14 06:19:32;;;;;;;;;;;16.50;94.90;;;;;;5055108;28;19986;-66
2021/08/14 06:21:58;;;;;;;;;;;16.40;95.60;;;;;;5073054;28;19909;-65
2021/08/14 06:24:25;;;;;;;;;;;16.40;95.00;;;;;;5073400;28;19908;-67
2021/08/14 06:26:52;;;;;;;;;;;16.40;94.50;;;;;;5055213;28;19927;-66
2021/08/14 06:29:19;;;;;;;;;;;16.40;94.10;;;;;;5074056;28;20065;-65
2021/08/14 06:31:45;;;;;;;;;;;16.30;94.60;;;;;;5073206;28;20351;-65
2021/08/14 06:34:12;;;;;;;;;;;16.30;94.90;;;;;;5073255;28;20058;-66
2021/08/14 06:36:39;;;;;;;;;;;16.30;94.70;;;;;;5073266;28;20085;-66
2021/08/14 06:39:05;;;;;;;;;;;16.20;95.10;;;;;;5072315;28;19966;-65
2021/08/14 06:41:32;;;;;;;;;;;16.20;95.30;;;;;;5071721;28;20343;-65
2021/08/14 06:43:59;;;;;;;;;;;16.10;95.60;;;;;;5074917;28;19909;-65
2021/08/14 06:46:25;;;;;;;;;;;16.10;95.80;;;;;;5075258;28;19917;-66
2021/08/14 06:48:52;;;;;;;;;;;16.10;96.20;;;;;;5075363;28;19966;-66
2021/08/14 06:51:19;;;;;;;;;;;16.00;96.40;;;;;;5075424;28;19943;-65
2021/08/14 06:53:48;;;;;;;;;;;16.00;96.60;;;;;;5074747;28;19909;-65
2021/08/14 06:56:15;;;;;;;;;;;16.00;96.40;;;;;;5075284;28;19919;-65
2021/08/14 06:58:41;;;;;;;;;;;16.00;96.50;;;;;;5075313;28;19916;-64
2021/08/14 07:01:08;;;;;;;;;;;16.00;96.60;;;;;;5074848;28;19915;-68
2021/08/14 07:03:35;;;;;;;;;;;16.00;96.20;;;;;;5074388;28;19920;-67
2021/08/14 07:06:01;;;;;;;;;;;15.90;96.00;;;;;;5074849;28;20359;-68
2021/08/14 07:08:28;;;;;;;;;;;15.90;96.20;;;;;;5074725;28;19962;-68
2021/08/14 07:10:55;;;;;;;;;;;15.80;96.40;;;;;;5074656;28;20379;-67
2021/08/14 07:13:21;;;;;;;;;;;15.70;96.70;;;;;;5074893;28;20371;-67
2021/08/14 07:15:48;;;;;;;;;;;15.70;97.00;;;;;;5074615;28;19962;-66
2021/08/14 07:18:14;;;;;;;;;;;15.70;97.40;;;;;;5074729;28;19990;-66
2021/08/14 07:20:41;;;;;;;;;;;15.70;97.30;;;;;;5074542;28;20003;-66
2021/08/14 07:23:08;;;;;;;;;;;15.60;97.50;;;;;;5074506;28;19954;-68
2021/08/14 07:25:34;;;;;;;;;;;15.60;97.80;;;;;;5074177;28;19979;-66
2021/08/14 07:28:01;;;;;;;;;;;15.60;98.10;;;;;;5073884;28;19909;-66
2021/08/14 07:30:28;;;;;;;;;;;15.60;98.20;;;;;;5074461;28;19908;-66
2021/08/14 07:32:54;;;;;;;;;;;15.50;98.50;;;;;;5074478;28;19908;-65
2021/08/14 07:35:21;;;;;;;;;;;15.50;98.50;;;;;;5074079;28;20255;-65
2021/08/14 07:37:52;;;;;;;;;;;15.40;98.80;;;;;;5074013;28;19915;-66
2021/08/14 07:40:20;;;;;;;;;;;15.40;98.90;;;;;;5073961;28;19908;-65
2021/08/14 07:42:47;;;;;;;;;;;15.40;99.10;;;;;;5073868;28;19915;-65
2021/08/14 07:45:19;;;;;;;;;;;15.40;98.80;;;;;;5074121;28;19909;-65
2021/08/14 07:47:48;;;;;;;;;;;15.40;98.80;;;;;;5073693;28;19927;-65
2021/08/14 07:50:25;;;;;;;;;;;15.40;98.90;;;;;;5073948;28;19908;-65
2021/08/14 07:52:52;;;;;;;;;;;15.30;99.00;;;;;;5074044;28;19921;-65
2021/08/14 07:55:19;;;;;;;;;;;15.30;99.00;;;;;;5072942;28;19932;-66
2021/08/14 07:57:45;;;;;;;;;;;15.20;99.20;;;;;;5073615;28;19930;-65
2021/08/14 08:00:16;;;;;;;;;;;15.20;99.20;;;;;;5073795;28;20287;-66
2021/08/14 08:02:43;;;;;;;;;;;15.20;99.40;;;;;;5073565;28;20263;-66
2021/08/14 08:05:10;;;;;;;;;;;15.10;99.40;;;;;;5073361;28;19909;-66
2021/08/14 08:07:37;;;;;;;;;;;15.10;99.50;;;;;;5073271;28;20339;-68
2021/08/14 08:10:08;;;;;;;;;;;15.10;99.50;;;;;;5073375;28;20402;-67
2021/08/14 08:12:34;;;;;;;;;;;15.10;99.70;;;;;;5073562;28;20274;-66
2021/08/14 08:15:01;;;;;;;;;;;15.10;99.80;;;;;;5073357;28;20325;-66
2021/08/14 08:17:28;;;;;;;;;;;15.00;99.90;;;;;;5073491;28;20011;-67
2021/08/14 08:19:54;;;;;;;;;;;15.00;99.90;;;;;;5073132;28;19909;-66
2021/08/14 08:22:21;;;;;;;;;;;15.00;99.90;;;;;;5073093;28;19922;-66
2021/08/14 08:24:48;;;;;;;;;;;15.00;99.90;;;;;;5073253;28;19920;-66
2021/08/14 08:27:14;;;;;;;;;;;15.00;99.90;;;;;;5073127;28;19909;-66
2021/08/14 08:29:41;;;;;;;;;;;15.00;99.90;;;;;;5072994;28;20271;-66
2021/08/14 08:32:08;;;;;;;;;;;14.90;99.90;;;;;;5073120;28;19908;-66
2021/08/14 08:34:35;;;;;;;;;;;14.90;99.90;;;;;;5073080;28;20291;-65
2021/08/14 08:37:02;;;;;;;;;;;14.90;99.90;;;;;;5072990;28;20293;-66
2021/08/14 08:39:31;;;;;;;;;;;15.00;99.90;;;;;;5073017;28;19999;-66
2021/08/14 08:41:57;;;;;;;;;;;14.90;99.90;;;;;;5072950;28;19915;-66
2021/08/14 08:44:24;;;;;;;;;;;14.90;99.90;;;;;;5055036;28;19908;-66
2021/08/14 08:46:51;;;;;;;;;;;14.90;99.90;;;;;;5072574;28;20391;-65
2021/08/14 08:49:23;;;;;;;;;;;14.90;99.90;;;;;;5072699;28;20049;-65
2021/08/14 08:51:50;;;;;;;;;;;14.90;99.90;;;;;;5072509;28;19919;-66
2021/08/14 08:54:17;;;;;;;;;;;14.90;99.90;;;;;;5072532;28;19923;-66
2021/08/14 08:56:44;;;;;;;;;;;14.90;99.90;;;;;;5072567;28;19908;-65
2021/08/14 08:59:13;;;;;;;;;;;14.90;99.90;;;;;;5072485;28;19909;-65
2021/08/14 09:01:41;;;;;;;;;;;14.90;99.90;;;;;;5072569;28;19908;-67
2021/08/14 09:04:20;;;;;;;;;;;14.80;99.90;;;;;;5072575;28;19908;-68
2021/08/14 09:06:46;;;;;;;;;;;14.80;99.90;;;;;;5072474;28;19917;-67
2021/08/14 09:09:14;;;;;;;;;;;14.80;99.90;;;;;;5072417;28;19916;-68
2021/08/14 09:11:48;;;;;;;;;;;14.80;99.90;;;;;;5072579;28;19908;-67
2021/08/14 09:14:14;;;;;;;;;;;14.80;99.90;;;;;;5071856;28;19920;-67
2021/08/14 09:16:41;;;;;;;;;;;14.80;99.90;;;;;;5072618;28;19918;-67
2021/08/14 09:19:08;;;;;;;;;;;14.70;99.90;;;;;;5072352;28;20325;-67
2021/08/14 09:21:40;;;;;;;;;;;14.80;99.90;;;;;;5072246;28;19909;-68
2021/08/14 09:24:08;;;;;;;;;;;14.70;99.90;;;;;;5071964;28;19909;-68
2021/08/14 09:26:46;;;;;;;;;;;14.70;99.90;;;;;;5072523;28;19975;-67
2021/08/14 09:29:13;;;;;;;;;;;14.70;99.90;;;;;;5071927;28;19913;-67
2021/08/14 09:31:47;;;;;;;;;;;14.70;99.90;;;;;;5072323;28;20283;-66
2021/08/14 09:34:17;;;;;;;;;;;14.70;99.90;;;;;;5072209;28;19947;-67
2021/08/14 09:36:44;;;;;;;;;;;14.70;99.90;;;;;;5072605;28;19912;-67
2021/08/14 09:39:10;;;;;;;;;;;14.80;99.90;;;;;;5072102;28;19920;-66
2021/08/14 09:41:37;;;;;;;;;;;14.70;99.90;;;;;;5072069;28;19954;-68
2021/08/14 09:44:12;;;;;;;;;;;14.60;99.90;;;;;;5071584;28;19932;-68
2021/08/14 09:46:40;;;;;;;;;;;14.60;99.90;;;;;;5072077;28;19921;-67
2021/08/14 09:49:07;;;;;;;;;;;14.60;99.90;;;;;;5072203;28;20378;-68
2021/08/14 09:51:34;;;;;;;;;;;14.60;99.90;;;;;;5071980;28;19999;-67
2021/08/14 09:54:02;;;;;;;;;;;14.60;99.90;;;;;;5071806;28;19967;-68
2021/08/14 09:56:34;;;;;;;;;;;14.60;99.90;;;;;;5071946;28;19919;-67
2021/08/14 09:59:02;;;;;;;;;;;14.60;99.90;;;;;;5071469;28;19916;-67
2021/08/14 10:01:30;;;;;;;;;;;14.60;99.90;;;;;;5072102;28;20365;-67
2021/08/14 10:03:57;;;;;;;;;;;14.60;99.90;;;;;;5054243;28;20292;-67
2021/08/14 10:06:24;;;;;;;;;;;14.60;99.90;;;;;;5072154;28;19999;-67
2021/08/14 10:08:51;;;;;;;;;;;14.50;99.90;;;;;;5072009;28;20689;-65
2021/08/14 10:11:18;;;;;;;;;;;14.50;99.90;;;;;;5071977;28;19948;-64
2021/08/14 10:13:45;;;;;;;;;;;14.50;99.90;;;;;;5071180;28;20211;-65
2021/08/14 10:16:12;;;;;;;;;;;14.50;99.90;;;;;;5071718;28;19920;-65
2021/08/14 10:18:40;;;;;;;;;;;14.50;99.90;;;;;;5074482;28;19908;-65
2021/08/14 10:21:07;;;;;;;;;;;14.50;99.90;;;;;;5075401;28;19909;-66
2021/08/14 10:23:34;;;;;;;;;;;14.50;99.90;;;;;;5075287;28;19909;-66
2021/08/14 10:26:02;;;;;;;;;;;14.50;99.90;;;;;;5075631;28;19909;-65
2021/08/14 10:28:41;;;;;;;;;;;14.50;99.90;;;;;;5075094;28;19909;-65
2021/08/14 10:31:07;;;;;;;;;;;14.50;99.90;;;;;;5075310;28;19908;-66
2021/08/14 10:33:35;;;;;;;;;;;14.40;99.90;;;;;;5075306;28;19951;-66
2021/08/14 10:36:23;;;;;;;;;;;14.40;99.90;;;;;;5075300;28;19921;-66
2021/08/14 10:38:50;;;;;;;;;;;14.40;99.90;;;;;;5064852;28;19923;-66
2021/08/14 10:41:17;;;;;;;;;;;14.40;99.90;;;;;;5075183;28;20011;-65
2021/08/14 10:43:59;;;;;;;;;;;14.30;99.90;;;;;;5074402;28;19908;-65
2021/08/14 10:46:35;;;;;;;;;;;14.30;99.90;;;;;;5075532;28;20363;-66
2021/08/14 10:49:03;;;;;;;;;;;14.30;99.90;;;;;;5075227;28;20283;-65
2021/08/14 10:51:51;;;;;;;;;;;14.30;99.90;;;;;;5075316;28;19916;-66
2021/08/14 10:54:26;;;;;;;;;;;14.30;99.90;;;;;;5074933;28;19916;-66
2021/08/14 10:56:54;;;;;;;;;;;14.30;99.90;;;;;;5074637;28;20341;-65
2021/08/14 10:59:36;;;;;;;;;;;14.20;99.90;;;;;;5074898;28;20364;-67
2021/08/14 11:02:02;;;;;;;;;;;14.20;99.90;;;;;;5075076;28;20328;-66
2021/08/14 11:04:52;;;;;;;;;;;14.30;99.90;;;;;;5075109;28;20271;-65
2021/08/14 11:07:19;;;;;;;;;;;14.30;99.90;;;;;;5066774;28;19908;-65
2021/08/14 11:09:45;;;;;;;;;;;14.30;99.90;;;;;;5074678;28;19922;-66
2021/08/14 11:12:12;;;;;;;;;;;14.30;99.90;;;;;;5074260;28;19913;-65
2021/08/14 11:14:43;;;;;;;;;;;14.20;99.90;;;;;;5074399;28;19912;-65
2021/08/14 11:17:11;;;;;;;;;;;14.20;99.90;;;;;;5074677;28;19916;-65
2021/08/14 11:19:51;;;;;;;;;;;14.30;99.90;;;;;;5074450;28;20264;-67
2021/08/14 11:22:22;;;;;;;;;;;14.20;99.90;;;;;;5074250;28;19917;-66
2021/08/14 11:24:49;;;;;;;;;;;14.20;99.90;;;;;;5074406;28;19913;-65
2021/08/14 11:27:18;;;;;;;;;;;14.10;99.90;;;;;;5073956;28;19944;-65
2021/08/14 11:29:45;;;;;;;;;;;14.10;99.90;;;;;;5074230;28;20363;-65
2021/08/14 11:32:12;;;;;;;;;;;14.10;99.90;;;;;;5074306;28;20278;-66
2021/08/14 11:34:40;;;;;;;;;;;14.10;99.90;;;;;;5074151;28;19924;-65
2021/08/14 11:37:09;;;;;;;;;;;14.10;99.90;;;;;;5073947;28;19908;-65
2021/08/14 11:39:35;;;;;;;;;;;14.00;99.90;;;;;;5071222;28;19956;-66
2021/08/14 11:42:02;;;;;;;;;;;14.00;99.90;;;;;;5071649;28;19913;-65
2021/08/14 11:44:32;;;;;;;;;;;14.00;99.90;;;;;;5053894;28;19913;-65
2021/08/14 11:47:06;;;;;;;;;;;14.00;99.90;;;;;;5071726;28;20286;-66
2021/08/14 11:50:00;;;;;;;;;;;14.00;99.90;;;;;;5071862;28;20282;-65
2021/08/14 11:52:27;;;;;;;;;;;14.00;99.90;;;;;;5069217;28;19909;-67
2021/08/14 11:55:03;;;;;;;;;;;14.00;99.90;;;;;;5071748;28;19917;-65
2021/08/14 11:57:34;;;;;;;;;;;13.90;99.90;;;;;;5086575;28;20394;-66
2021/08/14 12:00:05;;;;;;;;;;;14.00;99.90;;;;;;5071770;28;20011;-67
2021/08/14 12:02:32;;;;;;;;;;;13.90;99.90;;;;;;5071654;28;20434;-70
2021/08/14 12:04:59;;;;;;;;;;;13.90;99.90;;;;;;5053302;28;19909;-66
2021/08/14 12:07:25;;;;;;;;;;;13.90;99.90;;;;;;5071386;28;20035;-67
2021/08/14 12:09:52;;;;;;;;;;;13.90;99.90;;;;;;5071456;28;19960;-67
2021/08/14 12:12:20;;;;;;;;;;;13.90;99.90;;;;;;5070877;28;20000;-68
2021/08/14 12:14:47;;;;;;;;;;;14.00;99.90;;;;;;5071301;28;19923;-68
2021/08/14 12:17:14;;;;;;;;;;;14.00;99.90;;;;;;5071266;28;19917;-67
2021/08/14 12:19:51;;;;;;;;;;;14.00;99.90;;;;;;5071282;28;19971;-67
2021/08/14 12:22:18;;;;;;;;;;;13.90;99.90;;;;;;5071181;28;19932;-68
2021/08/14 12:24:45;;;;;;;;;;;13.90;99.90;;;;;;5071494;28;19909;-68
2021/08/14 12:27:22;;;;;;;;;;;13.90;99.90;;;;;;5070811;28;19912;-67
2021/08/14 12:29:49;;;;;;;;;;;13.80;99.90;;;;;;5070865;28;19912;-67
2021/08/14 12:32:15;;;;;;;;;;;13.90;99.90;;;;;;5071241;28;20401;-68
2021/08/14 12:34:44;;;;;;;;;;;13.90;99.90;;;;;;5070864;28;20298;-67
2021/08/14 12:37:12;;;;;;;;;;;13.90;99.90;;;;;;5070872;28;19962;-68
2021/08/14 12:39:49;;;;;;;;;;;13.90;99.90;;;;;;5070727;28;19940;-66
2021/08/14 12:42:17;;;;;;;;;;;13.90;99.90;;;;;;5070527;28;19908;-67
2021/08/14 12:44:43;;;;;;;;;;;13.90;99.90;;;;;;5070454;28;19939;-68
2021/08/14 12:47:10;;;;;;;;;;;13.90;99.90;;;;;;5070500;28;19947;-67
2021/08/14 12:49:37;;;;;;;;;;;13.90;99.90;;;;;;5070697;28;19924;-70
2021/08/14 12:52:08;;;;;;;;;;;13.90;99.90;;;;;;5070755;28;20343;-68
2021/08/14 12:54:34;;;;;;;;;;;13.90;99.90;;;;;;5070942;28;20276;-67
2021/08/14 12:57:02;;;;;;;;;;;13.90;99.90;;;;;;5070438;28;19934;-68
2021/08/14 12:59:29;;;;;;;;;;;13.80;99.90;;;;;;5070849;28;19990;-67
2021/08/14 13:01:57;;;;;;;;;;;13.80;99.90;;;;;;5070559;28;20326;-66
2021/08/14 13:04:24;;;;;;;;;;;13.70;99.90;;;;;;5070655;28;19954;-66
2021/08/14 13:06:51;;;;;;;;;;;13.60;99.90;;;;;;5070698;28;19908;-65
2021/08/14 13:09:18;;;;;;;;;;;13.60;99.90;;;;;;5070166;28;20003;-66
2021/08/14 13:11:44;;;;;;;;;;;13.50;99.90;;;;;;5069973;28;20422;-67
2021/08/14 13:14:11;;;;;;;;;;;13.50;99.90;;;;;;5070396;28;19966;-66
2021/08/14 13:16:38;;;;;;;;;;;13.50;99.90;;;;;;5070494;28;20378;-66
2021/08/14 13:19:05;;;;;;;;;;;13.40;99.90;;;;;;5070244;28;19978;-67
2021/08/14 13:21:32;;;;;;;;;;;13.30;99.90;;;;;;5070177;28;19923;-65
2021/08/14 13:24:00;;;;;;;;;;;13.30;99.90;;;;;;5070143;28;19927;-68
2021/08/14 13:26:27;;;;;;;;;;;13.20;99.90;;;;;;5070360;28;19913;-66
2021/08/14 13:28:54;;;;;;;;;;;13.20;99.90;;;;;;5070643;28;19947;-67
2021/08/14 13:31:21;;;;;;;;;;;13.20;99.90;;;;;;5070499;28;19944;-65
2021/08/14 13:33:47;;;;;;;;;;;13.20;99.90;;;;;;5069987;28;19912;-65
2021/08/14 13:36:14;;;;;;;;;;;13.20;99.90;;;;;;5069683;28;19921;-64
2021/08/14 13:38:41;;;;;;;;;;;13.20;99.90;;;;;;5070237;28;19908;-65
2021/08/14 13:41:08;;;;;;;;;;;13.10;99.90;;;;;;5069761;28;19909;-66
2021/08/14 13:43:35;;;;;;;;;;;13.10;99.90;;;;;;5069948;28;20278;-65
2021/08/14 13:46:02;;;;;;;;;;;13.10;99.90;;;;;;5051937;28;19912;-66
2021/08/14 13:48:28;;;;;;;;;;;13.00;99.90;;;;;;5069951;28;19919;-66
2021/08/14 13:50:55;;;;;;;;;;;13.00;99.90;;;;;;5052031;28;19915;-66
2021/08/14 13:53:22;;;;;;;;;;;13.00;99.90;;;;;;5072318;28;19928;-66
2021/08/14 13:55:48;;;;;;;;;;;13.00;99.90;;;;;;5073404;28;19990;-65
2021/08/14 13:58:15;;;;;;;;;;;13.00;99.90;;;;;;5073892;28;20363;-66
2021/08/14 14:00:42;;;;;;;;;;;13.00;99.90;;;;;;5073912;28;19916;-66
2021/08/14 14:03:08;;;;;;;;;;;13.00;99.90;;;;;;5073725;28;19941;-65
2021/08/14 14:05:35;;;;;;;;;;;13.00;99.90;;;;;;5073535;28;19909;-66
2021/08/14 14:08:02;;;;;;;;;;;13.00;99.90;;;;;;5092427;28;19926;-66
2021/08/14 14:10:29;;;;;;;;;;;12.90;99.90;;;;;;5074942;28;20282;-64
2021/08/14 14:12:56;;;;;;;;;;;12.90;99.90;;;;;;5072801;28;19946;-66
2021/08/14 14:15:23;;;;;;;;;;;12.90;99.90;;;;;;5073418;28;19917;-65
2021/08/14 14:17:49;;;;;;;;;;;13.00;99.90;;;;;;5073598;28;19915;-65